sensor_id;sensor_type;location;lat;lon;timestamp;P1;durP1;ratioP1;P2;durP2;ratioP2
44588;SDS011;30298;52.562;13.414;2022-09-29T00:02:19;13.73;;;7.57;;
44588;SDS011;30298;52.562;13.414;2022-09-29T00:04:44;12.53;;;6.87;;
44588;SDS011;30298;52.562;13.414;2022-09-29T00:07:10;13.40;;;6.73;;
44588;SDS011;30298;52.562;13.414;2022-09-29T00:09:35;12.23;;;6.47;;
44588;SDS011;30298;52.562;13.414;2022-09-29T00:12:00;13.40;;;7.20;;
44588;SDS011;30298;52.562;13.414;2022-09-29T00:14:25;15.63;;;7.17;;
44588;SDS011;30298;52.562;13.414;2022-09-29T00:16:50;14.33;;;7.30;;
44588;SDS011;30298;52.562;13.414;2022-09-29T00:19:17;14.73;;;7.88;;
44588;SDS011;30298;52.562;13.414;2022-09-29T00:24:08;14.15;;;7.70;;
44588;SDS011;30298;52.562;13.414;2022-09-29T00:26:33;13.37;;;8.53;;
44588;SDS011;30298;52.562;13.414;2022-09-29T00:28:59;13.43;;;7.90;;
44588;SDS011;30298;52.562;13.414;2022-09-29T00:31:25;13.13;;;7.30;;
44588;SDS011;30298;52.562;13.414;2022-09-29T00:33:51;15.20;;;7.72;;
44588;SDS011;30298;52.562;13.414;2022-09-29T00:36:17;15.80;;;8.07;;
44588;SDS011;30298;52.562;13.414;2022-09-29T00:41:19;11.98;;;6.63;;
44588;SDS011;30298;52.562;13.414;2022-09-29T00:46:11;13.83;;;7.77;;
44588;SDS011;30298;52.562;13.414;2022-09-29T00:48:37;18.05;;;8.75;;
44588;SDS011;30298;52.562;13.414;2022-09-29T00:51:03;13.73;;;7.57;;
44588;SDS011;30298;52.562;13.414;2022-09-29T00:53:28;15.07;;;7.67;;
44588;SDS011;30298;52.562;13.414;2022-09-29T00:56:04;12.17;;;7.17;;
44588;SDS011;30298;52.562;13.414;2022-09-29T00:58:35;14.68;;;7.75;;
44588;SDS011;30298;52.562;13.414;2022-09-29T01:01:02;12.95;;;7.40;;
44588;SDS011;30298;52.562;13.414;2022-09-29T01:03:30;16.50;;;8.32;;
44588;SDS011;30298;52.562;13.414;2022-09-29T01:06:00;18.65;;;8.90;;
44588;SDS011;30298;52.562;13.414;2022-09-29T01:08:28;14.15;;;7.75;;
44588;SDS011;30298;52.562;13.414;2022-09-29T01:10:54;15.25;;;7.95;;
44588;SDS011;30298;52.562;13.414;2022-09-29T01:13:21;11.65;;;6.88;;
44588;SDS011;30298;52.562;13.414;2022-09-29T01:15:46;15.17;;;7.83;;
44588;SDS011;30298;52.562;13.414;2022-09-29T01:18:11;13.30;;;8.47;;
44588;SDS011;30298;52.562;13.414;2022-09-29T01:20:42;18.07;;;8.27;;
44588;SDS011;30298;52.562;13.414;2022-09-29T01:23:19;15.98;;;8.00;;
44588;SDS011;30298;52.562;13.414;2022-09-29T01:39:29;15.05;;;7.72;;
44588;SDS011;30298;52.562;13.414;2022-09-29T01:42:08;13.00;;;7.68;;
44588;SDS011;30298;52.562;13.414;2022-09-29T01:44:41;14.85;;;7.60;;
44588;SDS011;30298;52.562;13.414;2022-09-29T01:47:09;14.48;;;7.22;;
44588;SDS011;30298;52.562;13.414;2022-09-29T01:49:37;13.32;;;8.38;;
44588;SDS011;30298;52.562;13.414;2022-09-29T01:54:36;13.40;;;7.72;;
44588;SDS011;30298;52.562;13.414;2022-09-29T01:57:05;13.82;;;8.18;;
44588;SDS011;30298;52.562;13.414;2022-09-29T02:02:08;14.77;;;7.28;;
44588;SDS011;30298;52.562;13.414;2022-09-29T02:04:42;15.00;;;7.70;;
44588;SDS011;30298;52.562;13.414;2022-09-29T02:07:11;16.27;;;9.30;;
44588;SDS011;30298;52.562;13.414;2022-09-29T02:09:39;15.50;;;8.50;;
44588;SDS011;30298;52.562;13.414;2022-09-29T02:12:06;13.32;;;8.13;;
44588;SDS011;30298;52.562;13.414;2022-09-29T02:14:35;13.57;;;7.68;;
44588;SDS011;30298;52.562;13.414;2022-09-29T02:17:11;16.30;;;7.85;;
44588;SDS011;30298;52.562;13.414;2022-09-29T02:19:43;14.45;;;7.53;;
44588;SDS011;30298;52.562;13.414;2022-09-29T02:22:09;14.25;;;8.10;;
44588;SDS011;30298;52.562;13.414;2022-09-29T02:24:34;10.90;;;6.80;;
44588;SDS011;30298;52.562;13.414;2022-09-29T02:27:00;12.05;;;7.55;;
44588;SDS011;30298;52.562;13.414;2022-09-29T02:29:26;11.93;;;7.28;;
44588;SDS011;30298;52.562;13.414;2022-09-29T02:31:51;12.47;;;8.17;;
44588;SDS011;30298;52.562;13.414;2022-09-29T02:34:18;13.47;;;8.27;;
44588;SDS011;30298;52.562;13.414;2022-09-29T02:41:50;12.73;;;7.63;;
44588;SDS011;30298;52.562;13.414;2022-09-29T02:49:38;16.13;;;8.55;;
44588;SDS011;30298;52.562;13.414;2022-09-29T02:52:21;12.95;;;8.13;;
44588;SDS011;30298;52.562;13.414;2022-09-29T02:57:30;12.15;;;7.60;;
44588;SDS011;30298;52.562;13.414;2022-09-29T03:00:12;19.13;;;8.13;;
44588;SDS011;30298;52.562;13.414;2022-09-29T03:02:38;15.35;;;8.70;;
44588;SDS011;30298;52.562;13.414;2022-09-29T03:05:05;14.32;;;8.10;;
44588;SDS011;30298;52.562;13.414;2022-09-29T03:07:30;14.80;;;7.88;;
44588;SDS011;30298;52.562;13.414;2022-09-29T03:09:55;12.23;;;7.53;;
44588;SDS011;30298;52.562;13.414;2022-09-29T03:12:21;12.57;;;7.77;;
44588;SDS011;30298;52.562;13.414;2022-09-29T03:14:46;12.23;;;7.30;;
44588;SDS011;30298;52.562;13.414;2022-09-29T03:17:11;13.53;;;7.37;;
44588;SDS011;30298;52.562;13.414;2022-09-29T03:19:36;12.27;;;7.43;;
44588;SDS011;30298;52.562;13.414;2022-09-29T03:22:02;13.67;;;8.63;;
44588;SDS011;30298;52.562;13.414;2022-09-29T03:24:28;12.00;;;8.00;;
44588;SDS011;30298;52.562;13.414;2022-09-29T03:26:53;15.17;;;8.23;;
44588;SDS011;30298;52.562;13.414;2022-09-29T03:29:18;11.87;;;8.00;;
44588;SDS011;30298;52.562;13.414;2022-09-29T03:31:43;14.87;;;8.00;;
44588;SDS011;30298;52.562;13.414;2022-09-29T03:34:09;13.53;;;8.30;;
44588;SDS011;30298;52.562;13.414;2022-09-29T03:36:34;12.87;;;7.87;;
44588;SDS011;30298;52.562;13.414;2022-09-29T03:38:59;13.13;;;8.60;;
44588;SDS011;30298;52.562;13.414;2022-09-29T03:41:24;13.87;;;8.70;;
44588;SDS011;30298;52.562;13.414;2022-09-29T03:43:50;14.43;;;9.10;;
44588;SDS011;30298;52.562;13.414;2022-09-29T03:46:15;17.47;;;8.47;;
44588;SDS011;30298;52.562;13.414;2022-09-29T03:48:40;14.40;;;9.23;;
44588;SDS011;30298;52.562;13.414;2022-09-29T03:51:07;13.20;;;8.38;;
44588;SDS011;30298;52.562;13.414;2022-09-29T03:53:33;13.27;;;8.70;;
44588;SDS011;30298;52.562;13.414;2022-09-29T03:55:58;13.25;;;8.32;;
44588;SDS011;30298;52.562;13.414;2022-09-29T03:58:23;14.63;;;9.57;;
44588;SDS011;30298;52.562;13.414;2022-09-29T04:00:49;13.73;;;8.60;;
44588;SDS011;30298;52.562;13.414;2022-09-29T04:03:14;14.43;;;9.43;;
44588;SDS011;30298;52.562;13.414;2022-09-29T04:05:39;17.73;;;9.40;;
44588;SDS011;30298;52.562;13.414;2022-09-29T04:08:05;17.60;;;9.70;;
44588;SDS011;30298;52.562;13.414;2022-09-29T04:10:32;15.40;;;9.30;;
44588;SDS011;30298;52.562;13.414;2022-09-29T04:12:58;14.40;;;9.25;;
44588;SDS011;30298;52.562;13.414;2022-09-29T04:15:23;13.90;;;9.27;;
44588;SDS011;30298;52.562;13.414;2022-09-29T04:17:48;14.80;;;9.63;;
44588;SDS011;30298;52.562;13.414;2022-09-29T04:20:13;16.07;;;9.33;;
44588;SDS011;30298;52.562;13.414;2022-09-29T04:22:39;17.70;;;10.27;;
44588;SDS011;30298;52.562;13.414;2022-09-29T04:25:04;16.17;;;9.97;;
44588;SDS011;30298;52.562;13.414;2022-09-29T04:27:29;13.02;;;9.07;;
44588;SDS011;30298;52.562;13.414;2022-09-29T04:29:55;17.17;;;11.00;;
44588;SDS011;30298;52.562;13.414;2022-09-29T04:32:20;15.87;;;9.47;;
44588;SDS011;30298;52.562;13.414;2022-09-29T04:34:45;15.83;;;9.50;;
44588;SDS011;30298;52.562;13.414;2022-09-29T04:37:11;14.40;;;10.02;;
44588;SDS011;30298;52.562;13.414;2022-09-29T04:39:37;12.90;;;9.10;;
44588;SDS011;30298;52.562;13.414;2022-09-29T04:42:02;14.98;;;9.27;;
44588;SDS011;30298;52.562;13.414;2022-09-29T04:44:28;14.57;;;9.47;;
44588;SDS011;30298;52.562;13.414;2022-09-29T04:46:53;16.07;;;10.10;;
44588;SDS011;30298;52.562;13.414;2022-09-29T04:49:18;16.37;;;9.60;;
44588;SDS011;30298;52.562;13.414;2022-09-29T04:51:44;13.30;;;8.77;;
44588;SDS011;30298;52.562;13.414;2022-09-29T04:54:09;14.60;;;10.00;;
44588;SDS011;30298;52.562;13.414;2022-09-29T04:56:34;17.10;;;10.43;;
44588;SDS011;30298;52.562;13.414;2022-09-29T04:59:00;15.07;;;9.70;;
44588;SDS011;30298;52.562;13.414;2022-09-29T05:01:25;13.77;;;9.20;;
44588;SDS011;30298;52.562;13.414;2022-09-29T05:03:50;15.23;;;10.10;;
44588;SDS011;30298;52.562;13.414;2022-09-29T05:06:16;17.63;;;10.57;;
44588;SDS011;30298;52.562;13.414;2022-09-29T05:08:41;16.90;;;9.57;;
44588;SDS011;30298;52.562;13.414;2022-09-29T05:11:07;17.63;;;10.33;;
44588;SDS011;30298;52.562;13.414;2022-09-29T05:13:33;14.98;;;9.48;;
44588;SDS011;30298;52.562;13.414;2022-09-29T05:15:58;16.23;;;9.63;;
44588;SDS011;30298;52.562;13.414;2022-09-29T05:18:23;16.47;;;10.33;;
44588;SDS011;30298;52.562;13.414;2022-09-29T05:20:49;15.07;;;10.77;;
44588;SDS011;30298;52.562;13.414;2022-09-29T05:23:14;18.87;;;11.30;;
44588;SDS011;30298;52.562;13.414;2022-09-29T05:25:39;18.40;;;10.03;;
44588;SDS011;30298;52.562;13.414;2022-09-29T05:28:04;16.50;;;10.20;;
44588;SDS011;30298;52.562;13.414;2022-09-29T05:30:30;16.03;;;10.10;;
44588;SDS011;30298;52.562;13.414;2022-09-29T05:32:55;18.53;;;10.30;;
44588;SDS011;30298;52.562;13.414;2022-09-29T05:35:20;17.20;;;10.13;;
44588;SDS011;30298;52.562;13.414;2022-09-29T05:37:46;15.40;;;9.93;;
44588;SDS011;30298;52.562;13.414;2022-09-29T05:40:11;19.77;;;11.93;;
44588;SDS011;30298;52.562;13.414;2022-09-29T05:42:36;20.17;;;11.47;;
44588;SDS011;30298;52.562;13.414;2022-09-29T05:45:02;18.75;;;10.93;;
44588;SDS011;30298;52.562;13.414;2022-09-29T05:47:27;23.02;;;10.88;;
44588;SDS011;30298;52.562;13.414;2022-09-29T05:49:52;19.83;;;11.63;;
44588;SDS011;30298;52.562;13.414;2022-09-29T05:52:18;29.57;;;11.53;;
44588;SDS011;30298;52.562;13.414;2022-09-29T05:54:43;18.47;;;10.77;;
44588;SDS011;30298;52.562;13.414;2022-09-29T05:57:08;18.37;;;11.20;;
44588;SDS011;30298;52.562;13.414;2022-09-29T05:59:33;17.87;;;11.10;;
44588;SDS011;30298;52.562;13.414;2022-09-29T06:01:59;19.07;;;10.77;;
44588;SDS011;30298;52.562;13.414;2022-09-29T06:04:24;17.47;;;10.67;;
44588;SDS011;30298;52.562;13.414;2022-09-29T06:06:49;20.30;;;11.50;;
44588;SDS011;30298;52.562;13.414;2022-09-29T06:09:14;18.03;;;10.30;;
44588;SDS011;30298;52.562;13.414;2022-09-29T06:11:39;16.93;;;10.20;;
44588;SDS011;30298;52.562;13.414;2022-09-29T06:14:05;18.52;;;10.90;;
44588;SDS011;30298;52.562;13.414;2022-09-29T06:16:31;27.27;;;11.07;;
44588;SDS011;30298;52.562;13.414;2022-09-29T06:18:57;18.67;;;10.40;;
44588;SDS011;30298;52.562;13.414;2022-09-29T06:21:24;19.25;;;11.07;;
44588;SDS011;30298;52.562;13.414;2022-09-29T06:23:50;20.48;;;11.32;;
44588;SDS011;30298;52.562;13.414;2022-09-29T06:26:16;21.90;;;12.05;;
44588;SDS011;30298;52.562;13.414;2022-09-29T06:31:09;17.67;;;11.13;;
44588;SDS011;30298;52.562;13.414;2022-09-29T06:33:35;21.50;;;11.50;;
44588;SDS011;30298;52.562;13.414;2022-09-29T06:36:01;20.42;;;11.60;;
44588;SDS011;30298;52.562;13.414;2022-09-29T06:38:46;20.10;;;10.82;;
44588;SDS011;30298;52.562;13.414;2022-09-29T06:41:12;21.77;;;11.80;;
44588;SDS011;30298;52.562;13.414;2022-09-29T06:43:37;23.50;;;12.33;;
44588;SDS011;30298;52.562;13.414;2022-09-29T06:46:02;17.93;;;10.47;;
44588;SDS011;30298;52.562;13.414;2022-09-29T06:48:28;18.57;;;11.03;;
44588;SDS011;30298;52.562;13.414;2022-09-29T06:50:54;27.15;;;13.15;;
44588;SDS011;30298;52.562;13.414;2022-09-29T06:53:19;17.77;;;10.57;;
44588;SDS011;30298;52.562;13.414;2022-09-29T06:55:50;23.27;;;10.40;;
44588;SDS011;30298;52.562;13.414;2022-09-29T06:58:16;19.77;;;11.07;;
44588;SDS011;30298;52.562;13.414;2022-09-29T07:00:41;19.20;;;10.07;;
44588;SDS011;30298;52.562;13.414;2022-09-29T07:03:06;20.90;;;11.60;;
44588;SDS011;30298;52.562;13.414;2022-09-29T07:05:31;17.57;;;10.50;;
44588;SDS011;30298;52.562;13.414;2022-09-29T07:07:58;19.05;;;11.45;;
44588;SDS011;30298;52.562;13.414;2022-09-29T07:10:23;17.27;;;9.83;;
44588;SDS011;30298;52.562;13.414;2022-09-29T07:12:49;20.70;;;10.60;;
44588;SDS011;30298;52.562;13.414;2022-09-29T07:15:14;18.30;;;10.83;;
44588;SDS011;30298;52.562;13.414;2022-09-29T07:17:39;14.63;;;9.43;;
44588;SDS011;30298;52.562;13.414;2022-09-29T07:20:04;17.73;;;10.33;;
44588;SDS011;30298;52.562;13.414;2022-09-29T07:22:30;18.53;;;10.47;;
44588;SDS011;30298;52.562;13.414;2022-09-29T07:24:55;16.97;;;10.47;;
44588;SDS011;30298;52.562;13.414;2022-09-29T07:27:20;18.27;;;10.33;;
44588;SDS011;30298;52.562;13.414;2022-09-29T07:29:51;17.15;;;9.68;;
44588;SDS011;30298;52.562;13.414;2022-09-29T07:32:16;15.98;;;9.60;;
44588;SDS011;30298;52.562;13.414;2022-09-29T07:34:42;16.55;;;10.25;;
44588;SDS011;30298;52.562;13.414;2022-09-29T07:37:07;18.77;;;10.60;;
44588;SDS011;30298;52.562;13.414;2022-09-29T07:39:32;18.10;;;8.83;;
44588;SDS011;30298;52.562;13.414;2022-09-29T07:41:58;16.80;;;9.90;;
44588;SDS011;30298;52.562;13.414;2022-09-29T07:44:23;17.10;;;9.73;;
44588;SDS011;30298;52.562;13.414;2022-09-29T07:46:48;14.40;;;9.53;;
44588;SDS011;30298;52.562;13.414;2022-09-29T07:49:14;13.43;;;8.88;;
44588;SDS011;30298;52.562;13.414;2022-09-29T07:51:39;22.53;;;11.93;;
44588;SDS011;30298;52.562;13.414;2022-09-29T07:54:04;16.77;;;9.97;;
44588;SDS011;30298;52.562;13.414;2022-09-29T07:56:30;18.17;;;10.10;;
44588;SDS011;30298;52.562;13.414;2022-09-29T07:58:56;18.45;;;10.60;;
44588;SDS011;30298;52.562;13.414;2022-09-29T08:01:22;19.50;;;11.27;;
44588;SDS011;30298;52.562;13.414;2022-09-29T08:03:51;21.93;;;12.93;;
44588;SDS011;30298;52.562;13.414;2022-09-29T08:06:18;17.92;;;10.40;;
44588;SDS011;30298;52.562;13.414;2022-09-29T08:08:43;20.90;;;10.57;;
44588;SDS011;30298;52.562;13.414;2022-09-29T08:11:12;18.97;;;11.17;;
44588;SDS011;30298;52.562;13.414;2022-09-29T08:13:37;17.35;;;9.63;;
44588;SDS011;30298;52.562;13.414;2022-09-29T08:16:03;16.37;;;11.07;;
44588;SDS011;30298;52.562;13.414;2022-09-29T08:20:54;18.88;;;10.75;;
44588;SDS011;30298;52.562;13.414;2022-09-29T08:23:20;15.77;;;9.80;;
44588;SDS011;30298;52.562;13.414;2022-09-29T08:25:45;17.17;;;10.75;;
44588;SDS011;30298;52.562;13.414;2022-09-29T08:28:10;18.37;;;11.17;;
44588;SDS011;30298;52.562;13.414;2022-09-29T08:30:36;18.77;;;10.65;;
44588;SDS011;30298;52.562;13.414;2022-09-29T08:35:27;19.80;;;11.10;;
44588;SDS011;30298;52.562;13.414;2022-09-29T08:37:53;19.30;;;10.53;;
44588;SDS011;30298;52.562;13.414;2022-09-29T08:40:19;17.20;;;10.93;;
44588;SDS011;30298;52.562;13.414;2022-09-29T08:42:55;18.33;;;11.27;;
44588;SDS011;30298;52.562;13.414;2022-09-29T08:45:28;20.65;;;13.05;;
44588;SDS011;30298;52.562;13.414;2022-09-29T08:47:55;17.10;;;10.73;;
44588;SDS011;30298;52.562;13.414;2022-09-29T08:52:58;18.67;;;10.67;;
44588;SDS011;30298;52.562;13.414;2022-09-29T08:55:27;17.38;;;11.80;;
44588;SDS011;30298;52.562;13.414;2022-09-29T08:57:58;17.92;;;10.82;;
44588;SDS011;30298;52.562;13.414;2022-09-29T09:00:35;19.55;;;12.30;;
44588;SDS011;30298;52.562;13.414;2022-09-29T09:03:13;18.15;;;11.50;;
44588;SDS011;30298;52.562;13.414;2022-09-29T09:05:46;33.00;;;15.80;;
44588;SDS011;30298;52.562;13.414;2022-09-29T09:08:19;19.92;;;11.45;;
44588;SDS011;30298;52.562;13.414;2022-09-29T09:26:15;20.25;;;11.15;;
44588;SDS011;30298;52.562;13.414;2022-09-29T09:28:54;19.73;;;11.43;;
44588;SDS011;30298;52.562;13.414;2022-09-29T09:31:26;21.05;;;11.93;;
44588;SDS011;30298;52.562;13.414;2022-09-29T09:41:24;17.30;;;11.40;;
44588;SDS011;30298;52.562;13.414;2022-09-29T09:43:52;19.00;;;11.48;;
44588;SDS011;30298;52.562;13.414;2022-09-29T09:49:13;19.60;;;11.15;;
44588;SDS011;30298;52.562;13.414;2022-09-29T09:51:43;16.80;;;10.82;;
44588;SDS011;30298;52.562;13.414;2022-09-29T09:54:11;16.38;;;10.48;;
44588;SDS011;30298;52.562;13.414;2022-09-29T10:01:46;19.83;;;11.48;;
44588;SDS011;30298;52.562;13.414;2022-09-29T10:04:12;18.47;;;10.67;;
44588;SDS011;30298;52.562;13.414;2022-09-29T10:06:37;19.67;;;11.20;;
44588;SDS011;30298;52.562;13.414;2022-09-29T10:09:02;16.47;;;10.70;;
44588;SDS011;30298;52.562;13.414;2022-09-29T10:11:29;14.33;;;10.37;;
44588;SDS011;30298;52.562;13.414;2022-09-29T10:16:49;16.02;;;10.18;;
44588;SDS011;30298;52.562;13.414;2022-09-29T10:19:19;14.65;;;9.50;;
44588;SDS011;30298;52.562;13.414;2022-09-29T10:21:44;12.98;;;9.05;;
44588;SDS011;30298;52.562;13.414;2022-09-29T10:24:26;14.30;;;9.37;;
44588;SDS011;30298;52.562;13.414;2022-09-29T10:26:52;14.20;;;8.15;;
44588;SDS011;30298;52.562;13.414;2022-09-29T10:31:43;12.87;;;9.23;;
44588;SDS011;30298;52.562;13.414;2022-09-29T10:34:21;12.70;;;9.43;;
44588;SDS011;30298;52.562;13.414;2022-09-29T10:36:57;11.68;;;8.90;;
44588;SDS011;30298;52.562;13.414;2022-09-29T10:39:31;13.38;;;7.82;;
44588;SDS011;30298;52.562;13.414;2022-09-29T10:41:57;10.00;;;7.05;;
44588;SDS011;30298;52.562;13.414;2022-09-29T10:44:22;7.97;;;6.43;;
44588;SDS011;30298;52.562;13.414;2022-09-29T10:46:49;10.23;;;6.50;;
44588;SDS011;30298;52.562;13.414;2022-09-29T10:49:18;9.60;;;6.57;;
44588;SDS011;30298;52.562;13.414;2022-09-29T10:51:55;10.95;;;6.10;;
44588;SDS011;30298;52.562;13.414;2022-09-29T10:54:22;7.55;;;5.35;;
44588;SDS011;30298;52.562;13.414;2022-09-29T10:56:49;7.13;;;5.13;;
44588;SDS011;30298;52.562;13.414;2022-09-29T11:01:59;9.52;;;6.05;;
44588;SDS011;30298;52.562;13.414;2022-09-29T11:04:31;14.02;;;6.93;;
44588;SDS011;30298;52.562;13.414;2022-09-29T11:07:07;8.50;;;6.45;;
44588;SDS011;30298;52.562;13.414;2022-09-29T11:09:36;10.48;;;6.13;;
44588;SDS011;30298;52.562;13.414;2022-09-29T11:12:02;8.40;;;6.43;;
44588;SDS011;30298;52.562;13.414;2022-09-29T11:14:29;8.32;;;6.53;;
44588;SDS011;30298;52.562;13.414;2022-09-29T11:16:55;8.93;;;6.13;;
44588;SDS011;30298;52.562;13.414;2022-09-29T11:19:21;10.20;;;6.20;;
44588;SDS011;30298;52.562;13.414;2022-09-29T11:21:50;9.00;;;6.00;;
44588;SDS011;30298;52.562;13.414;2022-09-29T11:24:20;9.93;;;5.90;;
44588;SDS011;30298;52.562;13.414;2022-09-29T11:31:54;6.85;;;5.35;;
44588;SDS011;30298;52.562;13.414;2022-09-29T11:39:36;7.68;;;5.25;;
44588;SDS011;30298;52.562;13.414;2022-09-29T11:45:00;8.70;;;5.32;;
44588;SDS011;30298;52.562;13.414;2022-09-29T11:47:42;7.50;;;5.30;;
44588;SDS011;30298;52.562;13.414;2022-09-29T11:50:21;8.10;;;5.65;;
44588;SDS011;30298;52.562;13.414;2022-09-29T11:52:58;6.40;;;4.32;;
44588;SDS011;30298;52.562;13.414;2022-09-29T12:06:20;5.93;;;4.50;;
44588;SDS011;30298;52.562;13.414;2022-09-29T12:08:53;5.22;;;3.75;;
44588;SDS011;30298;52.562;13.414;2022-09-29T12:16:33;10.15;;;5.28;;
44588;SDS011;30298;52.562;13.414;2022-09-29T12:19:12;8.45;;;4.57;;
44588;SDS011;30298;52.562;13.414;2022-09-29T12:21:41;6.72;;;4.95;;
44588;SDS011;30298;52.562;13.414;2022-09-29T12:24:10;11.98;;;5.30;;
44588;SDS011;30298;52.562;13.414;2022-09-29T12:26:37;8.55;;;5.47;;
44588;SDS011;30298;52.562;13.414;2022-09-29T12:31:47;6.38;;;4.28;;
44588;SDS011;30298;52.562;13.414;2022-09-29T12:37:00;6.63;;;4.38;;
44588;SDS011;30298;52.562;13.414;2022-09-29T12:39:35;7.78;;;4.95;;
44588;SDS011;30298;52.562;13.414;2022-09-29T12:44:42;7.57;;;5.10;;
44588;SDS011;30298;52.562;13.414;2022-09-29T12:47:19;5.53;;;4.78;;
44588;SDS011;30298;52.562;13.414;2022-09-29T12:50:04;6.95;;;4.70;;
44588;SDS011;30298;52.562;13.414;2022-09-29T12:52:41;7.05;;;4.95;;
44588;SDS011;30298;52.562;13.414;2022-09-29T12:55:13;7.13;;;5.00;;
44588;SDS011;30298;52.562;13.414;2022-09-29T12:57:39;7.05;;;5.20;;
44588;SDS011;30298;52.562;13.414;2022-09-29T13:10:27;8.02;;;4.97;;
44588;SDS011;30298;52.562;13.414;2022-09-29T13:27:52;6.50;;;5.05;;
44588;SDS011;30298;52.562;13.414;2022-09-29T13:30:19;7.93;;;4.72;;
44588;SDS011;30298;52.562;13.414;2022-09-29T13:32:56;5.95;;;4.10;;
44588;SDS011;30298;52.562;13.414;2022-09-29T13:35:22;8.52;;;4.65;;
44588;SDS011;30298;52.562;13.414;2022-09-29T13:38:01;6.95;;;4.07;;
44588;SDS011;30298;52.562;13.414;2022-09-29T13:40:27;5.80;;;4.43;;
44588;SDS011;30298;52.562;13.414;2022-09-29T13:47:45;7.17;;;4.30;;
44588;SDS011;30298;52.562;13.414;2022-09-29T13:53:12;6.55;;;4.15;;
44588;SDS011;30298;52.562;13.414;2022-09-29T13:55:47;5.28;;;3.50;;
44588;SDS011;30298;52.562;13.414;2022-09-29T13:58:25;5.78;;;3.38;;
44588;SDS011;30298;52.562;13.414;2022-09-29T14:00:51;7.18;;;3.90;;
44588;SDS011;30298;52.562;13.414;2022-09-29T14:03:21;3.80;;;2.85;;
44588;SDS011;30298;52.562;13.414;2022-09-29T14:05:51;4.40;;;3.20;;
44588;SDS011;30298;52.562;13.414;2022-09-29T14:08:21;4.43;;;2.83;;
44588;SDS011;30298;52.562;13.414;2022-09-29T14:10:59;3.80;;;2.60;;
44588;SDS011;30298;52.562;13.414;2022-09-29T14:16:04;5.47;;;3.17;;
44588;SDS011;30298;52.562;13.414;2022-09-29T14:18:35;5.75;;;3.13;;
44588;SDS011;30298;52.562;13.414;2022-09-29T14:21:03;6.15;;;3.30;;
44588;SDS011;30298;52.562;13.414;2022-09-29T14:28:53;5.32;;;3.30;;
44588;SDS011;30298;52.562;13.414;2022-09-29T14:31:20;4.15;;;2.80;;
44588;SDS011;30298;52.562;13.414;2022-09-29T14:33:46;5.18;;;3.30;;
44588;SDS011;30298;52.562;13.414;2022-09-29T14:36:15;5.85;;;3.45;;
44588;SDS011;30298;52.562;13.414;2022-09-29T14:38:44;5.90;;;3.85;;
44588;SDS011;30298;52.562;13.414;2022-09-29T14:46:08;4.70;;;3.03;;
44588;SDS011;30298;52.562;13.414;2022-09-29T14:49:02;4.32;;;3.00;;
44588;SDS011;30298;52.562;13.414;2022-09-29T14:51:58;4.60;;;3.03;;
44588;SDS011;30298;52.562;13.414;2022-09-29T14:54:46;4.50;;;3.38;;
44588;SDS011;30298;52.562;13.414;2022-09-29T14:57:19;4.85;;;3.58;;
44588;SDS011;30298;52.562;13.414;2022-09-29T15:02:19;5.57;;;3.13;;
44588;SDS011;30298;52.562;13.414;2022-09-29T15:04:45;4.97;;;3.38;;
44588;SDS011;30298;52.562;13.414;2022-09-29T15:07:29;6.85;;;4.68;;
44588;SDS011;30298;52.562;13.414;2022-09-29T15:09:58;4.57;;;3.13;;
44588;SDS011;30298;52.562;13.414;2022-09-29T15:12:25;4.32;;;2.97;;
44588;SDS011;30298;52.562;13.414;2022-09-29T15:14:51;4.85;;;3.33;;
44588;SDS011;30298;52.562;13.414;2022-09-29T15:17:30;3.70;;;2.97;;
44588;SDS011;30298;52.562;13.414;2022-09-29T15:20:21;4.50;;;3.05;;
44588;SDS011;30298;52.562;13.414;2022-09-29T15:25:25;5.35;;;3.53;;
44588;SDS011;30298;52.562;13.414;2022-09-29T15:27:55;4.43;;;3.20;;
44588;SDS011;30298;52.562;13.414;2022-09-29T15:30:21;4.82;;;2.85;;
44588;SDS011;30298;52.562;13.414;2022-09-29T15:32:47;4.03;;;3.15;;
44588;SDS011;30298;52.562;13.414;2022-09-29T15:35:14;5.55;;;3.05;;
44588;SDS011;30298;52.562;13.414;2022-09-29T15:40:13;3.70;;;2.67;;
44588;SDS011;30298;52.562;13.414;2022-09-29T15:42:38;5.63;;;2.83;;
44588;SDS011;30298;52.562;13.414;2022-09-29T15:45:07;4.78;;;3.00;;
44588;SDS011;30298;52.562;13.414;2022-09-29T15:47:35;4.47;;;2.50;;
44588;SDS011;30298;52.562;13.414;2022-09-29T15:50:15;4.20;;;3.17;;
44588;SDS011;30298;52.562;13.414;2022-09-29T15:52:41;3.33;;;2.80;;
44588;SDS011;30298;52.562;13.414;2022-09-29T15:55:10;4.07;;;3.03;;
44588;SDS011;30298;52.562;13.414;2022-09-29T16:00:40;3.55;;;3.05;;
44588;SDS011;30298;52.562;13.414;2022-09-29T16:05:25;6.80;;;4.60;;
44588;SDS011;30298;52.562;13.414;2022-09-29T16:07:52;7.23;;;3.90;;
44588;SDS011;30298;52.562;13.414;2022-09-29T16:10:22;4.60;;;3.65;;
44588;SDS011;30298;52.562;13.414;2022-09-29T16:12:55;10.60;;;3.60;;
44588;SDS011;30298;52.562;13.414;2022-09-29T16:15:28;5.10;;;4.15;;
44588;SDS011;30298;52.562;13.414;2022-09-29T16:17:54;5.70;;;4.03;;
44588;SDS011;30298;52.562;13.414;2022-09-29T16:20:22;5.20;;;3.72;;
44588;SDS011;30298;52.562;13.414;2022-09-29T16:22:49;5.88;;;4.53;;
44588;SDS011;30298;52.562;13.414;2022-09-29T16:25:20;7.40;;;4.17;;
44588;SDS011;30298;52.562;13.414;2022-09-29T16:27:52;5.63;;;4.05;;
44588;SDS011;30298;52.562;13.414;2022-09-29T16:30:19;6.93;;;3.70;;
44588;SDS011;30298;52.562;13.414;2022-09-29T16:32:45;6.00;;;3.80;;
44588;SDS011;30298;52.562;13.414;2022-09-29T16:38:15;7.57;;;4.00;;
44588;SDS011;30298;52.562;13.414;2022-09-29T16:40:40;6.85;;;4.57;;
44588;SDS011;30298;52.562;13.414;2022-09-29T16:43:05;7.90;;;4.70;;
44588;SDS011;30298;52.562;13.414;2022-09-29T16:45:41;7.13;;;4.65;;
44588;SDS011;30298;52.562;13.414;2022-09-29T16:48:07;6.90;;;4.50;;
44588;SDS011;30298;52.562;13.414;2022-09-29T16:50:32;7.00;;;4.30;;
44588;SDS011;30298;52.562;13.414;2022-09-29T16:52:58;5.28;;;4.40;;
44588;SDS011;30298;52.562;13.414;2022-09-29T16:55:26;7.83;;;4.83;;
44588;SDS011;30298;52.562;13.414;2022-09-29T16:57:59;7.30;;;4.47;;
44588;SDS011;30298;52.562;13.414;2022-09-29T17:00:25;13.32;;;9.32;;
44588;SDS011;30298;52.562;13.414;2022-09-29T17:02:50;6.63;;;4.40;;
44588;SDS011;30298;52.562;13.414;2022-09-29T17:05:16;6.68;;;4.35;;
44588;SDS011;30298;52.562;13.414;2022-09-29T17:07:41;10.35;;;4.78;;
44588;SDS011;30298;52.562;13.414;2022-09-29T17:10:09;7.10;;;4.25;;
44588;SDS011;30298;52.562;13.414;2022-09-29T17:12:38;9.35;;;4.60;;
44588;SDS011;30298;52.562;13.414;2022-09-29T17:15:05;19.55;;;11.82;;
44588;SDS011;30298;52.562;13.414;2022-09-29T17:17:30;7.57;;;4.90;;
44588;SDS011;30298;52.562;13.414;2022-09-29T17:19:55;6.90;;;5.07;;
44588;SDS011;30298;52.562;13.414;2022-09-29T17:22:26;8.40;;;5.27;;
44588;SDS011;30298;52.562;13.414;2022-09-29T17:24:51;7.57;;;4.90;;
44588;SDS011;30298;52.562;13.414;2022-09-29T17:27:17;6.57;;;4.90;;
44588;SDS011;30298;52.562;13.414;2022-09-29T17:30:01;6.00;;;4.90;;
44588;SDS011;30298;52.562;13.414;2022-09-29T17:32:27;8.60;;;5.32;;
44588;SDS011;30298;52.562;13.414;2022-09-29T17:34:52;8.63;;;5.43;;